createdAt,value
2023-04-15T00:05:51.414Z,89
2023-04-15T00:15:51.876Z,89
2023-04-15T00:25:52.725Z,90
2023-04-15T00:35:53.319Z,91
2023-04-15T00:45:54.335Z,91
2023-04-15T00:55:54.704Z,92
2023-04-15T01:05:55.035Z,92
2023-04-15T01:15:55.587Z,92
2023-04-15T01:25:56.343Z,93
2023-04-15T01:35:56.802Z,94
2023-04-15T01:45:57.694Z,94
2023-04-15T01:55:58.100Z,94
2023-04-15T02:05:58.451Z,95
2023-04-15T02:15:58.644Z,94
2023-04-15T02:25:59.094Z,95
2023-04-15T02:35:59.523Z,95
2023-04-15T02:46:00.332Z,95
2023-04-15T02:56:00.544Z,95
2023-04-15T03:06:01.366Z,96
2023-04-15T03:16:01.757Z,96
2023-04-15T03:26:02.788Z,96
2023-04-15T03:36:03.015Z,97
2023-04-15T03:46:04.085Z,97
2023-04-15T03:56:04.912Z,97
2023-04-15T04:16:06.197Z,97
2023-04-15T04:36:06.720Z,98
2023-04-15T04:46:07.772Z,98
2023-04-15T04:56:08.592Z,98
2023-04-15T05:06:09.671Z,98
2023-04-15T05:16:10.403Z,98
2023-04-15T05:26:10.652Z,98
2023-04-15T05:36:11.294Z,98
2023-04-15T05:46:11.480Z,98
2023-04-15T05:56:11.886Z,98
2023-04-15T06:06:12.057Z,98
2023-04-15T06:16:12.824Z,98
2023-04-15T06:26:13.657Z,98
2023-04-15T06:36:13.989Z,98
2023-04-15T06:46:15.109Z,98
2023-04-15T07:06:16.092Z,97
2023-04-15T07:16:17.139Z,96
2023-04-15T07:36:18.373Z,95
2023-04-15T07:46:19.482Z,95
2023-04-15T07:56:20.366Z,94
2023-04-15T08:16:21.960Z,92
2023-04-15T08:26:23.023Z,91
2023-04-15T08:36:23.560Z,91
2023-04-15T08:46:24.042Z,91
2023-04-15T08:56:24.359Z,91
2023-04-15T09:06:24.512Z,92
2023-04-15T09:26:25.091Z,92
2023-04-15T09:36:25.452Z,93
2023-04-15T09:46:25.632Z,93
2023-04-15T09:56:26.138Z,92
2023-04-15T10:06:27.160Z,92
2023-04-15T10:16:27.855Z,92
2023-04-15T10:26:28.382Z,92
2023-04-15T10:36:28.566Z,91
2023-04-15T10:46:28.916Z,91
2023-04-15T11:06:29.927Z,92
2023-04-15T11:16:30.520Z,91
2023-04-15T11:26:31.579Z,92
2023-04-15T11:36:31.675Z,91
2023-04-15T11:46:32.476Z,91
2023-04-15T11:56:33.392Z,91
2023-04-15T12:06:33.888Z,91
2023-04-15T12:16:36.602Z,90
2023-04-15T12:26:35.504Z,90
2023-04-15T12:46:36.810Z,90
2023-04-15T12:56:37.526Z,90
2023-04-15T13:06:38.125Z,90
2023-04-15T13:16:38.748Z,90
2023-04-15T13:36:39.710Z,92
2023-04-15T13:46:40.462Z,93
2023-04-15T13:56:40.844Z,94
2023-04-15T14:06:41.338Z,95
2023-04-15T14:16:42.279Z,96
2023-04-15T14:26:42.824Z,96
2023-04-15T14:36:43.846Z,97
2023-04-15T14:46:44.296Z,97
2023-04-15T14:56:45.005Z,97
2023-04-15T15:16:46.150Z,97
2023-04-15T15:26:46.796Z,98
2023-04-15T15:36:47.743Z,98
2023-04-15T15:46:48.192Z,98
2023-04-15T15:56:49.061Z,98
2023-04-15T16:06:49.577Z,98
2023-04-15T16:16:49.877Z,98
2023-04-15T16:26:50.150Z,98
2023-04-15T16:36:50.894Z,98
2023-04-15T16:46:51.378Z,99
2023-04-15T16:56:52.017Z,99
2023-04-15T17:06:53.111Z,99
2023-04-15T17:16:53.434Z,99
2023-04-15T17:26:53.389Z,99
2023-04-15T17:36:53.681Z,99
2023-04-15T17:56:54.371Z,99
2023-04-15T18:06:54.550Z,98
2023-04-15T18:16:55.331Z,98
2023-04-15T18:26:56.243Z,98
2023-04-15T18:36:56.478Z,98
2023-04-15T18:56:58.454Z,98
2023-04-15T19:06:58.593Z,98
2023-04-15T19:16:59.184Z,98
2023-04-15T19:27:00.036Z,98
2023-04-15T19:37:00.432Z,98
2023-04-15T19:47:00.682Z,98
2023-04-15T20:07:02.131Z,98
2023-04-15T20:17:02.446Z,98
2023-04-15T20:27:03.262Z,98
2023-04-15T20:47:04.077Z,99
2023-04-15T20:57:04.674Z,99
2023-04-15T21:07:05.698Z,99
2023-04-15T21:17:08.607Z,99
2023-04-15T21:37:07.730Z,99
2023-04-15T21:47:08.301Z,99
2023-04-15T21:57:08.974Z,99
2023-04-15T22:07:10.031Z,99
2023-04-15T22:17:10.705Z,99
2023-04-15T22:27:11.175Z,99
2023-04-15T22:37:11.522Z,99
2023-04-15T22:47:11.745Z,99
2023-04-15T22:57:12.260Z,99
2023-04-15T23:07:12.434Z,99
2023-04-15T23:17:13.128Z,99
2023-04-15T23:37:14.178Z,99
2023-04-15T23:47:15.025Z,99
2023-04-15T23:57:15.620Z,99
